Time;durP1;ratioP1;P1;durP2;ratioP2;P2;SDS_P1;SDS_P2;PMS_P1;PMS_P2;Temp;Humidity;BMP_temperature;BMP_pressure;BME280_temperature;BME280_humidity;BME280_pressure;Samples;Min_cycle;Max_cycle;Signal;HPM_P1;HPM_P2
2022/12/27 00:00:48;;;;;;;;;11.33;11.00;;;;;9.84;57.14;101921.28;5046376;28;45770;-62
2022/12/27 00:03:14;;;;;;;;;13.67;11.67;;;;;9.84;57.32;101920.44;5054298;28;45607;-63
2022/12/27 00:05:44;;;;;;;;;14.67;13.67;;;;;9.78;57.04;101917.84;5053279;28;45553;-62
2022/12/27 00:08:09;;;;;;;;;14.00;12.33;;;;;9.78;57.46;101921.38;5054678;28;45433;-62
2022/12/27 00:10:35;;;;;;;;;18.00;13.33;;;;;9.79;57.51;101938.88;5054115;28;45662;-62
2022/12/27 00:13:01;;;;;;;;;18.00;15.00;;;;;9.80;57.72;101940.59;5052494;28;46823;-63
2022/12/27 00:15:26;;;;;;;;;17.67;16.00;;;;;9.78;57.32;101936.25;5053907;28;45510;-62
2022/12/27 00:17:51;;;;;;;;;13.00;11.00;;;;;9.74;57.16;101924.91;5054207;28;45489;-62
2022/12/27 00:20:17;;;;;;;;;17.33;14.67;;;;;9.80;57.40;101934.47;5053978;28;45671;-62
2022/12/27 00:22:43;;;;;;;;;13.67;13.67;;;;;9.77;57.32;101931.88;5061635;27;46233;-62
2022/12/27 00:25:09;;;;;;;;;17.00;14.33;;;;;9.76;57.52;101938.91;5054171;28;45457;-63
2022/12/27 00:27:34;;;;;;;;;15.67;14.33;;;;;9.77;57.56;101934.50;5054069;28;45427;-63
2022/12/27 00:30:00;;;;;;;;;16.00;15.00;;;;;9.71;57.57;101936.31;5046977;28;45560;-63
2022/12/27 00:32:25;;;;;;;;;11.00;11.00;;;;;9.73;57.56;101944.19;5061603;28;46637;-63
2022/12/27 00:34:51;;;;;;;;;13.00;13.00;;;;;9.71;57.98;101945.94;5057869;28;45470;-62
2022/12/27 00:37:16;;;;;;;;;13.00;9.33;;;;;9.70;57.37;101949.47;5057807;28;45498;-62
2022/12/27 00:39:42;;;;;;;;;12.33;10.33;;;;;9.65;57.77;101943.41;5056747;28;45525;-62
2022/12/27 00:42:07;;;;;;;;;12.33;11.00;;;;;9.62;57.92;101949.56;5057259;28;45660;-63
2022/12/27 00:44:32;;;;;;;;;10.33;10.33;;;;;9.62;58.00;101952.19;5057285;28;45469;-62
2022/12/27 00:46:58;;;;;;;;;10.00;9.00;;;;;9.56;57.85;101946.09;5057532;28;45483;-63
2022/12/27 00:49:23;;;;;;;;;10.33;10.00;;;;;9.57;58.01;101948.72;5057015;28;45557;-63
2022/12/27 00:51:49;;;;;;;;;8.00;8.00;;;;;9.56;58.40;101951.34;5057134;28;46685;-62
2022/12/27 00:54:14;;;;;;;;;9.67;9.00;;;;;9.59;58.20;101956.56;5055886;28;45482;-61
2022/12/27 00:56:40;;;;;;;;;8.00;8.00;;;;;9.58;58.10;101952.22;5043514;28;45455;-63
2022/12/27 00:59:05;;;;;;;;;8.00;8.00;;;;;9.58;57.98;101954.84;5056026;28;45659;-63
2022/12/27 01:01:34;;;;;;;;;10.00;8.00;;;;;9.59;58.13;101957.47;5057195;28;45406;-63
2022/12/27 01:04:00;;;;;;;;;8.00;8.00;;;;;9.58;58.52;101957.47;5057126;28;45497;-60
2022/12/27 01:06:30;;;;;;;;;9.67;8.67;;;;;9.58;58.42;101952.22;5055776;28;45566;-61
2022/12/27 01:08:56;;;;;;;;;7.00;7.00;;;;;9.54;58.01;101956.63;5056824;28;45550;-61
2022/12/27 01:11:23;;;;;;;;;6.33;4.00;;;;;9.62;58.28;101967.06;5056938;28;45553;-62
2022/12/27 01:13:49;;;;;;;;;9.00;7.33;;;;;9.60;58.42;101967.06;5054510;28;45474;-61
2022/12/27 01:16:22;;;;;;;;;9.00;7.00;;;;;9.60;58.54;101968.84;5044011;28;45715;-62
2022/12/27 01:18:48;;;;;;;;;7.67;5.67;;;;;9.58;58.57;101965.34;5048286;28;45411;-60
2022/12/27 01:21:17;;;;;;;;;6.33;6.33;;;;;9.62;58.21;101964.44;5055036;28;46436;-62
2022/12/27 01:23:43;;;;;;;;;7.00;7.00;;;;;9.56;58.74;101961.84;5055237;28;45609;-61
2022/12/27 01:26:18;;;;;;;;;5.33;5.33;;;;;9.61;58.47;101965.31;5056811;28;45624;-62
2022/12/27 01:28:44;;;;;;;;;8.00;7.00;;;;;9.64;58.43;101970.53;5054366;28;45506;-61
2022/12/27 01:31:13;;;;;;;;;9.67;7.67;;;;;9.62;58.54;101975.81;5050313;28;45470;-62
2022/12/27 01:33:39;;;;;;;;;7.33;6.33;;;;;9.57;57.97;101964.47;5055072;28;45514;-62
2022/12/27 01:36:12;;;;;;;;;8.67;7.33;;;;;9.64;58.49;101970.53;5056102;28;45445;-62
2022/12/27 01:38:41;;;;;;;;;8.67;7.00;;;;;9.62;58.47;101967.94;5055090;28;45664;-61
2022/12/27 01:42:50;;;;;;;;;5.33;5.33;;;;;9.55;58.80;101962.75;5050899;28;45549;-63
2022/12/27 01:43:54;;;;;;;;;4.67;4.00;;;;;9.59;58.53;101969.69;5038014;28;45505;-62
2022/12/27 01:46:19;;;;;;;;;8.33;8.33;;;;;9.61;58.72;101978.44;5053771;28;45517;-62
2022/12/27 01:48:45;;;;;;;;;7.00;7.00;;;;;9.62;58.62;101974.94;5051648;28;45472;-62
2022/12/27 01:51:11;;;;;;;;;7.00;7.00;;;;;9.62;58.34;101977.59;5052496;28;45516;-62
2022/12/27 01:53:40;;;;;;;;;8.33;7.00;;;;;9.61;58.67;101976.69;5051033;28;45499;-62
2022/12/27 01:56:18;;;;;;;;;5.00;5.00;;;;;9.62;58.97;101985.47;5040432;28;45511;-62
2022/12/27 01:58:46;;;;;;;;;7.00;7.00;;;;;9.62;58.99;101988.94;5052351;28;45426;-62
2022/12/27 02:01:20;;;;;;;;;4.67;4.67;;;;;9.54;58.97;101989.88;5056206;28;45375;-62
2022/12/27 02:04:09;;;;;;;;;7.67;7.00;;;;;9.58;58.59;101995.09;5054510;28;45692;-63
2022/12/27 02:06:36;;;;;;;;;8.00;8.00;;;;;9.59;58.88;101988.09;5055570;28;45833;-61
2022/12/27 02:09:02;;;;;;;;;5.00;5.00;;;;;9.56;58.61;101991.59;5055882;28;45451;-62
2022/12/27 02:11:51;;;;;;;;;8.33;7.00;;;;;9.56;58.88;102002.13;5054358;28;46214;-61
2022/12/27 02:14:19;;;;;;;;;7.00;5.00;;;;;9.54;58.67;102011.78;5054896;28;45553;-63
2022/12/27 02:16:44;;;;;;;;;5.67;5.67;;;;;9.49;58.63;102003.06;5054266;28;45672;-62
2022/12/27 02:19:20;;;;;;;;;7.00;7.00;;;;;9.36;58.80;101994.41;5053439;28;45662;-62
2022/12/27 02:22:05;;;;;;;;;7.00;5.00;;;;;9.42;59.21;102007.50;5055309;28;46273;-61
2022/12/27 02:24:59;;;;;;;;;7.00;6.33;;;;;9.39;58.94;101993.53;5045629;28;45483;-62
2022/12/27 02:27:49;;;;;;;;;7.67;7.00;;;;;9.40;59.15;101998.78;5054769;28;45477;-62
2022/12/27 02:30:15;;;;;;;;;4.00;4.00;;;;;9.38;58.94;101995.28;5052778;28;45625;-62
2022/12/27 02:33:03;;;;;;;;;5.67;5.67;;;;;9.36;59.39;101994.41;5052961;28;45712;-62
2022/12/27 02:35:31;;;;;;;;;3.33;3.33;;;;;9.38;59.42;101992.66;5054969;28;45568;-64
2022/12/27 02:38:03;;;;;;;;;7.00;7.00;;;;;9.32;58.92;101989.19;5049264;28;45591;-62
2022/12/27 02:55:24;;;;;;;;;8.00;7.00;;;;;9.10;60.15;101989.34;5038848;28;46465;-62
2022/12/27 02:58:08;;;;;;;;;8.67;7.00;;;;;9.04;60.27;101985.00;5052117;28;45462;-61
2022/12/27 03:03:56;;;;;;;;;6.00;5.33;;;;;9.09;60.33;101994.63;5039707;28;45489;-62
2022/12/27 03:06:41;;;;;;;;;6.33;6.33;;;;;9.14;60.37;102003.34;5046289;28;46778;-61
2022/12/27 03:15:53;;;;;;;;;8.67;7.00;;;;;9.16;60.28;102006.81;5049731;28;45521;-62
2022/12/27 03:17:59;;;;;;;;;3.00;3.00;;;;;9.15;60.17;102002.44;5053827;28;45813;-61
2022/12/27 03:25:56;;;;;;;;;5.33;5.33;;;;;9.18;60.84;101998.03;5051308;28;45566;-61
2022/12/27 03:40:11;;;;;;;;;5.33;5.33;;;;;9.18;59.87;102012.91;5054661;28;45399;-62
2022/12/27 03:48:23;;;;;;;;;4.67;4.67;;;;;9.10;60.17;102020.84;5039427;28;45565;-62
2022/12/27 03:50:53;;;;;;;;;5.33;5.33;;;;;9.05;60.47;102005.16;5054160;28;45747;-62
2022/12/27 03:53:28;;;;;;;;;4.67;4.67;;;;;9.13;60.48;102012.06;5053855;28;45639;-61
2022/12/27 03:55:54;;;;;;;;;3.33;2.00;;;;;9.16;60.55;102017.31;5053844;28;46088;-62
2022/12/27 03:58:19;;;;;;;;;3.00;3.00;;;;;9.18;60.68;102011.16;5051720;28;45614;-61
2022/12/27 04:00:45;;;;;;;;;6.00;6.00;;;;;9.14;60.62;102008.59;5046050;28;45711;-62
2022/12/27 04:03:10;;;;;;;;;4.33;4.33;;;;;9.16;60.63;102005.06;5045471;28;45517;-62
2022/12/27 04:05:35;;;;;;;;;6.33;5.00;;;;;9.16;60.20;102006.81;5053137;28;45480;-62
2022/12/27 04:35:20;;;;;;;;;3.67;3.67;;;;;9.19;60.69;102006.81;5053586;28;45489;-62
2022/12/27 04:37:46;;;;;;;;;7.00;4.00;;;;;9.17;60.91;102006.81;5052657;28;45839;-62
2022/12/27 04:56:38;;;;;;;;;4.00;3.00;;;;;9.22;60.56;102001.53;5052745;28;45505;-62
2022/12/27 05:02:02;;;;;;;;;7.00;5.00;;;;;9.22;59.98;101999.78;5053465;28;45418;-62
2022/12/27 05:04:29;;;;;;;;;6.33;6.33;;;;;9.26;60.10;102005.88;5053508;28;45481;-62
2022/12/27 05:06:55;;;;;;;;;6.33;4.67;;;;;9.22;60.29;102006.78;5053573;28;45418;-62
2022/12/27 05:14:48;;;;;;;;;9.00;7.67;;;;;9.13;60.73;101993.72;5053337;28;45764;-62
2022/12/27 05:17:14;;;;;;;;;7.00;7.00;;;;;9.07;60.81;101995.50;5053404;28;45459;-62
2022/12/27 05:19:39;;;;;;;;;9.00;8.00;;;;;9.09;61.00;101997.25;5055699;28;45517;-61
2022/12/27 05:27:32;;;;;;;;;6.67;6.33;;;;;9.11;60.79;101998.97;5047907;28;45468;-61
2022/12/27 05:29:58;;;;;;;;;5.33;5.33;;;;;9.05;60.69;101986.78;5056955;28;45413;-62
2022/12/27 05:32:23;;;;;;;;;3.67;3.67;;;;;9.11;60.80;102003.34;5049927;28;45549;-62
2022/12/27 05:34:48;;;;;;;;;5.67;4.00;;;;;9.10;60.70;101998.97;5053197;28;45459;-62
2022/12/27 05:37:13;;;;;;;;;7.00;7.00;;;;;9.10;61.13;101991.97;5047744;28;45541;-62
2022/12/27 05:39:39;;;;;;;;;5.33;4.67;;;;;9.11;60.80;102000.72;5065656;27;45365;-62
2022/12/27 05:42:04;;;;;;;;;6.67;6.33;;;;;9.11;60.93;101995.47;5048196;28;45520;-62
2022/12/27 05:44:30;;;;;;;;;9.00;7.00;;;;;9.13;61.11;102012.06;5051775;28;45728;-62
2022/12/27 05:46:55;;;;;;;;;6.00;4.67;;;;;9.11;61.16;102009.47;5053983;28;45443;-62
2022/12/27 05:49:21;;;;;;;;;6.67;6.67;;;;;9.12;61.00;102000.72;5046257;28;45924;-62
2022/12/27 05:51:46;;;;;;;;;7.67;7.67;;;;;9.15;60.84;101997.19;5056654;28;45483;-62
2022/12/27 05:54:11;;;;;;;;;7.00;5.33;;;;;9.11;61.09;101996.34;5055612;28;46172;-62
2022/12/27 05:56:37;;;;;;;;;7.33;7.00;;;;;9.09;60.70;101992.88;5055041;28;45461;-62
2022/12/27 05:59:03;;;;;;;;;7.00;5.33;;;;;9.12;61.45;101990.22;5050525;28;45846;-61
2022/12/27 06:01:28;;;;;;;;;4.00;4.00;;;;;9.10;60.54;101985.84;5046803;28;45550;-62
2022/12/27 06:03:53;;;;;;;;;3.00;3.00;;;;;9.08;60.73;101983.25;5055219;28;46068;-62
2022/12/27 06:06:19;;;;;;;;;4.00;4.00;;;;;9.08;61.04;101975.38;5056150;28;45489;-62
2022/12/27 06:08:44;;;;;;;;;4.67;4.00;;;;;9.02;60.73;101978.03;5056426;28;45372;-62
2022/12/27 06:11:15;;;;;;;;;7.00;5.33;;;;;8.89;61.41;101964.13;5056397;28;45538;-62
2022/12/27 06:13:42;;;;;;;;;5.33;5.33;;;;;8.95;61.25;101982.47;5056076;28;45593;-62
2022/12/27 06:16:10;;;;;;;;;5.33;5.33;;;;;8.92;60.97;101978.97;5055971;28;45665;-63
2022/12/27 06:18:37;;;;;;;;;5.33;5.33;;;;;8.90;61.54;101970.25;5056308;28;45539;-62
2022/12/27 06:21:08;;;;;;;;;6.33;5.00;;;;;8.89;61.23;101979.00;5054966;28;45517;-61
2022/12/27 06:23:36;;;;;;;;;6.00;4.00;;;;;8.89;61.12;101976.38;5055659;28;45446;-62
2022/12/27 06:26:05;;;;;;;;;5.33;5.33;;;;;8.81;61.30;101969.44;5055462;28;45477;-62
2022/12/27 06:28:31;;;;;;;;;5.33;4.67;;;;;8.89;61.46;101989.50;5049317;28;45753;-61
2022/12/27 06:30:58;;;;;;;;;7.00;4.00;;;;;8.86;61.56;101972.00;5040340;28;45640;-62
2022/12/27 06:33:23;;;;;;;;;7.00;5.67;;;;;8.80;61.32;101972.91;5055458;28;46497;-62
2022/12/27 06:35:49;;;;;;;;;5.33;5.33;;;;;8.78;61.47;101971.19;5069272;27;45500;-62
2022/12/27 06:38:14;;;;;;;;;5.33;4.00;;;;;8.79;61.63;101971.19;5054997;28;45484;-62
2022/12/27 06:40:39;;;;;;;;;8.00;7.00;;;;;8.78;61.52;101976.44;5055588;28;45541;-63
2022/12/27 06:43:04;;;;;;;;;5.33;5.33;;;;;8.76;61.25;101970.34;5055362;28;46368;-62
2022/12/27 06:45:30;;;;;;;;;6.00;4.00;;;;;8.72;61.44;101976.47;5055366;28;45571;-62
2022/12/27 06:47:55;;;;;;;;;5.00;3.00;;;;;8.71;61.66;101982.63;5055470;28;45555;-62
2022/12/27 06:50:21;;;;;;;;;5.67;4.00;;;;;8.69;61.81;101971.25;5053899;28;45667;-62
2022/12/27 06:52:46;;;;;;;;;8.67;6.00;;;;;8.70;61.86;101963.34;5055312;28;45785;-62
2022/12/27 06:55:11;;;;;;;;;7.67;7.00;;;;;8.76;61.84;101973.84;5044988;28;45505;-62
2022/12/27 06:57:37;;;;;;;;;6.67;6.67;;;;;8.77;61.82;101983.44;5042486;28;45568;-62
2022/12/27 07:00:04;;;;;;;;;7.00;7.00;;;;;8.79;61.83;101975.56;5038960;28;45473;-62
2022/12/27 07:02:29;;;;;;;;;7.00;7.00;;;;;8.71;61.60;101959.88;5055126;28;46318;-63
2022/12/27 07:04:54;;;;;;;;;8.67;8.67;;;;;8.77;62.00;101965.06;5051207;28;46410;-62
2022/12/27 07:07:19;;;;;;;;;4.00;4.00;;;;;8.79;62.16;101978.19;5047712;28;45576;-62
2022/12/27 07:09:45;;;;;;;;;3.67;2.67;;;;;8.70;62.11;101959.88;5035942;28;45515;-62
2022/12/27 07:12:10;;;;;;;;;4.33;4.33;;;;;8.84;61.69;101974.66;5050734;28;46493;-62
2022/12/27 07:14:35;;;;;;;;;8.00;6.33;;;;;8.87;61.73;101984.25;5054702;28;45534;-62
2022/12/27 07:17:01;;;;;;;;;4.33;4.33;;;;;8.83;61.88;101977.28;5054941;28;45435;-63
2022/12/27 07:19:26;;;;;;;;;9.00;6.67;;;;;8.80;62.28;101985.16;5053686;28;45613;-62
2022/12/27 07:21:51;;;;;;;;;9.33;6.67;;;;;8.80;61.85;101988.66;5053637;28;46313;-62
2022/12/27 07:24:17;;;;;;;;;8.33;6.33;;;;;8.84;61.67;102000.03;5053033;28;45539;-60
2022/12/27 07:26:42;;;;;;;;;7.67;7.67;;;;;8.82;61.87;101992.16;5049696;28;45422;-60
2022/12/27 07:29:08;;;;;;;;;8.00;8.00;;;;;8.81;61.56;101998.28;5045884;28;45439;-60
2022/12/27 07:31:34;;;;;;;;;7.67;7.33;;;;;8.85;61.73;101996.50;5043763;28;45792;-61
2022/12/27 07:34:01;;;;;;;;;9.00;5.33;;;;;8.87;61.67;102001.75;5054851;28;45505;-60
2022/12/27 07:36:36;;;;;;;;;8.25;6.50;;;;;8.85;61.72;102004.38;5044542;28;45550;-62
2022/12/27 07:39:03;;;;;;;;;7.33;6.00;;;;;8.85;61.37;102001.75;5053391;28;45577;-61
2022/12/27 07:41:28;;;;;;;;;7.67;7.67;;;;;8.75;61.81;101993.06;5052751;28;46193;-60
2022/12/27 07:43:54;;;;;;;;;8.67;8.67;;;;;8.79;62.12;102002.66;5049925;28;45470;-60
2022/12/27 07:46:22;;;;;;;;;6.00;6.00;;;;;8.77;61.94;101993.06;5052292;28;45906;-66
2022/12/27 07:48:48;;;;;;;;;5.33;5.33;;;;;8.79;61.74;102000.03;5049309;28;45569;-62
2022/12/27 07:51:15;;;;;;;;;6.33;6.33;;;;;8.80;61.86;101990.41;5051270;28;45524;-62
2022/12/27 07:53:41;;;;;;;;;8.00;6.67;;;;;8.85;62.19;101997.38;5054835;28;45566;-61
2022/12/27 07:56:09;;;;;;;;;9.33;8.00;;;;;8.87;61.55;102009.63;5053069;28;45450;-61
2022/12/27 07:58:36;;;;;;;;;7.33;7.33;;;;;8.86;61.65;101998.25;5034116;28;45625;-61
2022/12/27 08:01:03;;;;;;;;;7.33;7.00;;;;;8.89;61.97;101999.97;5034263;28;45519;-64
2022/12/27 08:03:30;;;;;;;;;6.00;6.00;;;;;8.85;61.50;101996.50;5040508;28;45548;-61
2022/12/27 08:05:55;;;;;;;;;8.00;7.00;;;;;8.91;61.82;101993.84;5051416;28;45581;-60
2022/12/27 08:08:23;;;;;;;;;8.00;8.00;;;;;8.89;61.52;101992.09;5053717;28;45486;-60
2022/12/27 08:10:49;;;;;;;;;6.67;6.67;;;;;8.89;61.49;102002.59;5053205;28;45497;-60
2022/12/27 08:13:14;;;;;;;;;8.00;8.00;;;;;8.89;61.54;102007.84;5053383;28;45547;-60
2022/12/27 08:15:41;;;;;;;;;7.00;7.00;;;;;8.80;62.08;102006.16;5053798;28;45495;-60
2022/12/27 08:18:07;;;;;;;;;11.67;9.33;;;;;8.86;61.42;102011.38;5053999;28;45544;-61
2022/12/27 08:20:32;;;;;;;;;7.67;7.67;;;;;8.85;61.33;102012.25;5053342;28;45803;-60
2022/12/27 08:22:58;;;;;;;;;6.33;6.00;;;;;8.81;61.53;102013.13;5053758;28;45497;-60
2022/12/27 08:25:23;;;;;;;;;7.33;7.00;;;;;8.79;61.15;102000.03;5052536;28;45613;-60
2022/12/27 08:27:49;;;;;;;;;7.00;7.00;;;;;8.78;61.39;102014.03;5041027;28;45512;-61
2022/12/27 08:30:14;;;;;;;;;10.00;7.00;;;;;8.76;62.01;102009.69;5053569;28;46137;-60
2022/12/27 08:32:39;;;;;;;;;8.00;6.33;;;;;8.69;62.22;102002.72;5053422;28;45469;-60
2022/12/27 08:35:05;;;;;;;;;7.33;7.33;;;;;8.77;62.00;102016.66;5051387;28;45602;-60
2022/12/27 08:37:30;;;;;;;;;6.00;6.00;;;;;8.76;61.50;102017.56;5047826;28;45452;-60
2022/12/27 08:39:56;;;;;;;;;7.33;7.33;;;;;8.68;61.30;102016.69;5053145;28;51392;-61
2022/12/27 08:42:21;;;;;;;;;4.33;4.33;;;;;8.65;61.66;102014.09;5053485;28;45505;-61
2022/12/27 08:44:47;;;;;;;;;4.00;4.00;;;;;8.61;61.83;102008.00;5053317;28;45607;-61
2022/12/27 08:47:12;;;;;;;;;9.67;7.00;;;;;8.64;61.97;102018.47;5053575;28;45607;-61
2022/12/27 08:49:37;;;;;;;;;8.67;7.00;;;;;8.40;61.46;101990.59;5051766;28;48013;-61
2022/12/27 08:52:03;;;;;;;;;6.50;6.50;;;;;8.57;62.21;102016.75;5053303;28;45507;-61
2022/12/27 08:54:28;;;;;;;;;7.00;7.00;;;;;8.52;62.25;102016.78;5055060;28;45497;-61
2022/12/27 08:56:54;;;;;;;;;10.75;7.50;;;;;8.55;61.67;102032.50;5054482;28;45581;-60
2022/12/27 08:59:19;;;;;;;;;7.00;6.75;;;;;8.49;62.07;102011.56;5044126;28;50091;-60
2022/12/27 09:01:44;;;;;;;;;8.67;6.33;;;;;8.55;62.29;102029.00;5050807;28;45490;-60
2022/12/27 09:04:09;;;;;;;;;8.50;8.50;;;;;8.57;62.18;102027.22;5056847;28;45370;-60
2022/12/27 09:06:35;;;;;;;;;8.25;8.25;;;;;8.57;62.58;102030.75;5056853;28;45505;-60
2022/12/27 09:09:00;;;;;;;;;8.25;8.25;;;;;8.54;62.26;102036.03;5056353;28;46042;-60
2022/12/27 09:11:28;;;;;;;;;11.50;8.25;;;;;8.57;61.71;102050.84;5056524;28;45407;-60
2022/12/27 09:13:54;;;;;;;;;8.00;8.00;;;;;8.55;61.91;102044.75;5056431;28;45564;-60
2022/12/27 09:16:23;;;;;;;;;7.75;7.00;;;;;8.57;62.14;102038.63;5056296;28;45479;-60
2022/12/27 09:18:51;;;;;;;;;11.25;9.75;;;;;8.62;61.91;102044.72;5056040;28;46675;-61
2022/12/27 09:21:18;;;;;;;;;8.25;8.00;;;;;8.61;61.86;102034.22;5056235;28;45559;-60
2022/12/27 09:23:44;;;;;;;;;8.75;8.00;;;;;8.60;62.26;102043.84;5056745;28;45462;-61
2022/12/27 09:26:13;;;;;;;;;8.67;8.00;;;;;8.59;61.56;102035.97;5050704;28;45634;-60
2022/12/27 09:28:39;;;;;;;;;9.00;8.00;;;;;8.53;62.29;102044.75;5044752;28;47399;-60
2022/12/27 09:31:05;;;;;;;;;19.25;15.50;;;;;8.52;62.21;102040.38;5056050;28;45567;-61
2022/12/27 09:33:30;;;;;;;;;8.00;7.67;;;;;8.35;61.77;102013.31;5055103;28;45509;-60
2022/12/27 09:36:01;;;;;;;;;8.50;7.25;;;;;8.51;62.39;102038.63;5056081;28;45536;-60
2022/12/27 09:38:27;;;;;;;;;7.00;7.00;;;;;8.46;62.46;102043.00;5056150;28;46236;-61
2022/12/27 09:40:55;;;;;;;;;9.50;8.50;;;;;8.45;62.58;102035.16;5055825;28;45486;-60
2022/12/27 09:43:27;;;;;;;;;8.67;8.67;;;;;8.57;62.75;102054.34;5053132;28;45536;-61
2022/12/27 09:45:56;;;;;;;;;8.00;8.00;;;;;8.62;62.14;102059.56;5049632;28;45584;-61
2022/12/27 09:48:51;;;;;;;;;7.00;7.00;;;;;8.65;62.50;102066.53;5052265;28;47600;-61
2022/12/27 09:51:20;;;;;;;;;13.00;12.67;;;;;8.59;62.35;102065.69;5045106;28;45424;-61
2022/12/27 09:54:10;;;;;;;;;12.33;11.33;;;;;8.68;62.30;102070.06;5052627;28;45517;-61
2022/12/27 09:56:36;;;;;;;;;7.00;7.00;;;;;8.66;62.32;102066.56;5055590;28;45486;-61
2022/12/27 09:59:17;;;;;;;;;9.33;9.00;;;;;8.63;62.58;102064.81;5048744;28;46264;-61
2022/12/27 10:01:43;;;;;;;;;6.00;6.00;;;;;8.71;62.60;102063.94;5048332;28;45432;-61
2022/12/27 10:04:13;;;;;;;;;12.25;10.25;;;;;8.75;61.96;102066.50;5055658;28;45442;-62
2022/12/27 10:06:44;;;;;;;;;11.67;9.33;;;;;8.77;61.86;102056.88;5050288;28;45529;-61
2022/12/27 10:09:54;;;;;;;;;11.67;9.67;;;;;8.79;62.27;102049.88;5052892;28;45619;-61
2022/12/27 10:12:36;;;;;;;;;12.25;12.25;;;;;8.76;62.61;102049.91;5052737;28;45534;-61
2022/12/27 10:15:38;;;;;;;;;10.75;10.00;;;;;8.85;62.39;102055.09;5055601;28;45493;-61
2022/12/27 10:18:27;;;;;;;;;12.75;12.25;;;;;8.89;62.44;102041.97;5055480;28;45482;-61
2022/12/27 10:21:18;;;;;;;;;12.50;11.00;;;;;8.93;62.01;102036.69;5053862;28;47474;-61
2022/12/27 10:23:51;;;;;;;;;13.00;12.00;;;;;8.92;62.11;102021.84;5055478;28;45453;-61
2022/12/27 10:26:18;;;;;;;;;11.67;11.33;;;;;9.01;61.89;102041.91;5055645;28;45506;-61
2022/12/27 10:28:47;;;;;;;;;14.50;14.50;;;;;8.89;62.04;102015.72;5070800;27;45603;-61
2022/12/27 10:31:16;;;;;;;;;17.75;16.50;;;;;9.00;62.34;102035.78;5055185;28;45450;-61
2022/12/27 10:33:43;;;;;;;;;24.50;22.00;;;;;9.05;62.19;102038.38;5053842;28;45834;-61
2022/12/27 10:36:13;;;;;;;;;34.00;29.50;;;;;9.07;62.43;102031.38;5053108;28;45413;-61
2022/12/27 10:38:38;;;;;;;;;24.50;23.00;;;;;9.14;62.11;102032.22;5055166;28;45596;-61
2022/12/27 10:41:23;;;;;;;;;14.00;12.33;;;;;9.15;61.95;102029.56;5047119;28;46696;-61
2022/12/27 10:43:52;;;;;;;;;15.67;13.00;;;;;9.09;62.10;102013.84;5052490;28;45502;-61
2022/12/27 10:46:29;;;;;;;;;11.00;9.50;;;;;9.17;61.91;102024.31;5055178;28;45461;-61
2022/12/27 10:49:31;;;;;;;;;13.50;13.50;;;;;9.20;61.65;102022.53;5055150;28;45585;-61
2022/12/27 10:52:20;;;;;;;;;13.00;10.50;;;;;9.31;62.04;102030.34;5053201;28;45489;-61
2022/12/27 10:54:52;;;;;;;;;13.25;10.75;;;;;9.30;61.31;102015.47;5054738;28;45736;-61
2022/12/27 10:57:32;;;;;;;;;13.75;11.50;;;;;9.40;61.54;102019.78;5053326;28;45591;-61
2022/12/27 11:00:20;;;;;;;;;13.00;13.00;;;;;9.47;60.76;102023.22;5041131;28;45482;-61
2022/12/27 11:02:57;;;;;;;;;14.33;13.33;;;;;9.45;60.82;102017.97;5043259;28;46173;-63
2022/12/27 11:05:28;;;;;;;;;12.67;10.00;;;;;9.45;61.25;102027.59;5054785;28;45573;-61
2022/12/27 11:07:54;;;;;;;;;13.00;11.33;;;;;9.50;60.87;102029.31;5054983;28;45529;-61
2022/12/27 11:10:26;;;;;;;;;10.67;9.33;;;;;9.55;60.91;102028.41;5054509;28;45727;-59
2022/12/27 11:13:02;;;;;;;;;14.67;9.67;;;;;9.58;60.57;102029.25;5039801;28;46575;-59
2022/12/27 11:15:34;;;;;;;;;12.00;11.33;;;;;9.56;60.38;102015.25;5049350;28;45496;-59
2022/12/27 11:18:08;;;;;;;;;12.00;11.00;;;;;9.61;60.29;102017.84;5069600;27;45581;-61
2022/12/27 11:20:46;;;;;;;;;14.67;11.67;;;;;9.64;61.11;102013.44;5053039;28;45532;-59
2022/12/27 11:23:18;;;;;;;;;15.33;14.33;;;;;9.62;60.76;102009.97;5043276;28;45501;-59
2022/12/27 11:26:00;;;;;;;;;9.00;8.00;;;;;9.65;60.45;101996.81;5052651;28;45569;-59
2022/12/27 11:28:40;;;;;;;;;13.33;13.33;;;;;9.67;60.50;101986.25;5054296;28;45486;-59
2022/12/27 11:31:08;;;;;;;;;13.00;10.67;;;;;9.68;59.99;101977.50;5054176;28;45514;-59
2022/12/27 11:33:38;;;;;;;;;16.33;16.33;;;;;9.67;59.71;101970.50;5054125;28;46762;-59
2022/12/27 11:36:06;;;;;;;;;11.00;11.00;;;;;9.64;60.28;101967.91;5053744;28;45465;-60
2022/12/27 11:38:33;;;;;;;;;10.33;10.33;;;;;9.63;60.07;101963.56;5054300;28;45512;-59
2022/12/27 11:41:05;;;;;;;;;15.67;12.33;;;;;9.62;60.24;101935.56;5052867;28;45406;-59
2022/12/27 11:43:38;;;;;;;;;14.00;12.33;;;;;9.68;60.14;101949.47;5054110;28;46527;-59
2022/12/27 11:46:12;;;;;;;;;10.67;10.33;;;;;9.65;60.02;101941.63;5045384;28;45471;-60
2022/12/27 11:48:43;;;;;;;;;9.33;8.33;;;;;9.62;59.97;101941.66;5054384;28;45574;-60
2022/12/27 11:51:37;;;;;;;;;9.00;9.00;;;;;9.65;59.59;101936.38;5053813;28;45612;-60
2022/12/27 11:54:34;;;;;;;;;9.00;9.00;;;;;9.72;59.77;101942.44;5053977;28;45491;-60
2022/12/27 11:57:13;;;;;;;;;7.00;7.00;;;;;9.75;59.74;101945.03;5048844;28;45463;-60
2022/12/27 11:59:50;;;;;;;;;7.67;7.67;;;;;9.80;59.93;101943.22;5042878;28;45507;-60
2022/12/27 12:02:28;;;;;;;;;6.33;5.00;;;;;9.83;59.34;101944.94;5052312;28;45484;-59
2022/12/27 12:05:15;;;;;;;;;7.33;7.00;;;;;9.87;57.96;101944.91;5053877;28;46309;-60
2022/12/27 12:07:57;;;;;;;;;5.00;3.00;;;;;9.90;57.61;101952.75;5053765;28;45618;-60
2022/12/27 12:10:28;;;;;;;;;4.00;3.00;;;;;9.92;57.46;101947.50;5052244;28;45421;-60
2022/12/27 12:13:07;;;;;;;;;3.33;3.33;;;;;9.94;57.22;101945.72;5041670;28;45594;-60
2022/12/27 12:15:58;;;;;;;;;3.67;3.67;;;;;9.98;57.71;101947.41;5053367;28;46430;-60
2022/12/27 12:19:01;;;;;;;;;4.67;4.33;;;;;10.03;57.76;101937.72;5046234;28;45481;-60
2022/12/27 12:21:43;;;;;;;;;3.00;3.00;;;;;10.04;57.57;101935.97;5046772;28;45486;-60
2022/12/27 12:24:30;;;;;;;;;8.00;5.00;;;;;10.05;58.13;101950.88;5044578;28;45670;-60
2022/12/27 12:27:21;;;;;;;;;7.00;4.00;;;;;10.08;58.62;101945.56;5055104;28;45446;-60
2022/12/27 12:29:58;;;;;;;;;4.00;3.00;;;;;10.11;58.27;101937.63;5052575;28;45617;-61
2022/12/27 12:32:42;;;;;;;;;3.00;2.67;;;;;10.15;57.82;101940.22;5042422;28;45501;-61
2022/12/27 12:35:23;;;;;;;;;4.00;4.00;;;;;10.17;57.44;101929.66;5042561;28;45505;-63
2022/12/27 12:38:39;;;;;;;;;4.00;3.00;;;;;10.16;57.77;101914.78;5053604;28;48327;-58
2022/12/27 12:41:14;;;;;;;;;5.67;4.67;;;;;10.23;56.92;101915.56;5051406;28;45495;-60
2022/12/27 12:43:48;;;;;;;;;6.33;3.67;;;;;10.24;56.85;101910.31;5045232;28;45586;-61
2022/12/27 12:46:36;;;;;;;;;3.00;3.00;;;;;10.27;57.72;101905.03;5051925;28;45498;-65
2022/12/27 12:49:19;;;;;;;;;2.33;2.33;;;;;10.26;57.17;101903.28;5052372;28;46174;-65
2022/12/27 12:52:09;;;;;;;;;4.67;3.00;;;;;10.12;56.77;101873.66;5058390;27;45592;-65
2022/12/27 12:54:52;;;;;;;;;2.33;2.33;;;;;10.33;57.21;101898.81;5035466;28;45517;-64
2022/12/27 12:57:39;;;;;;;;;3.00;3.00;;;;;10.32;56.81;101897.97;5033000;28;45486;-65
2022/12/27 13:00:09;;;;;;;;;2.00;2.00;;;;;10.31;56.10;101882.19;5033489;28;46691;-67
2022/12/27 13:02:48;;;;;;;;;2.33;2.33;;;;;10.33;56.60;101883.06;5041440;28;45464;-60
2022/12/27 13:05:34;;;;;;;;;2.00;1.00;;;;;10.34;56.45;101884.78;5048116;28;45516;-59
2022/12/27 13:08:18;;;;;;;;;4.33;3.33;;;;;10.37;56.69;101890.88;5053626;28;45509;-59
2022/12/27 13:11:11;;;;;;;;;2.00;2.00;;;;;10.38;55.85;101873.34;5049810;28;45502;-61
2022/12/27 13:14:15;;;;;;;;;2.67;2.67;;;;;10.41;55.56;101875.06;5051126;28;45477;-59
2022/12/27 13:16:52;;;;;;;;;4.00;3.00;;;;;10.38;54.51;101863.69;5045015;28;45651;-58
2022/12/27 13:19:21;;;;;;;;;2.33;2.33;;;;;10.41;56.08;101864.53;5040625;28;45625;-61
2022/12/27 13:22:27;;;;;;;;;2.00;2.00;;;;;10.44;55.94;101872.38;5045874;28;46282;-58
2022/12/27 13:25:10;;;;;;;;;2.00;2.00;;;;;10.44;56.43;101865.34;5034851;28;45584;-62
2022/12/27 13:27:50;;;;;;;;;2.00;2.00;;;;;10.47;56.03;101864.44;5053202;28;45545;-60
2022/12/27 13:30:22;;;;;;;;;2.00;2.00;;;;;10.44;55.27;101856.59;5043570;28;45527;-59
2022/12/27 13:33:22;;;;;;;;;2.67;2.67;;;;;10.49;55.60;101857.41;5041019;28;45594;-62